Time;durP1;ratioP1;P1;durP2;ratioP2;P2;SDS_P1;SDS_P2;PMS_P1;PMS_P2;Temp;Humidity;BMP_temperature;BMP_pressure;BME280_temperature;BME280_humidity;BME280_pressure;Samples;Min_cycle;Max_cycle;Signal;HPM_P1;HPM_P2
2022/01/14 00:02:00;;;;;;;;;100.33;73.67;;;;;2.01;76.84;103497.31;4977283;28;47056;-73
2022/01/14 00:04:26;;;;;;;;;103.75;82.25;;;;;2.06;76.48;103510.84;4979046;28;45318;-73
2022/01/14 00:06:52;;;;;;;;;94.33;73.33;;;;;1.92;76.46;103481.63;4979600;28;45409;-74
2022/01/14 00:09:17;;;;;;;;;99.33;73.33;;;;;2.04;76.91;103509.75;4979984;28;45370;-73
2022/01/14 00:11:50;;;;;;;;;96.00;73.33;;;;;1.89;76.78;103483.94;4979483;28;45447;-73
2022/01/14 00:16:43;;;;;;;;;101.00;79.67;;;;;1.95;77.38;103489.78;4979602;28;45353;-73
2022/01/14 00:19:10;;;;;;;;;100.00;72.33;;;;;2.03;77.33;103508.81;4980065;28;45226;-73
2022/01/14 00:21:37;;;;;;;;;92.00;69.33;;;;;1.89;76.54;103483.94;4979554;28;45652;-73
2022/01/14 00:24:10;;;;;;;;;92.00;69.33;;;;;1.84;77.27;103477.31;4979734;28;45237;-73
2022/01/14 00:32:24;;;;;;;;;85.00;66.00;;;;;1.77;77.23;103472.25;4979239;28;45465;-74
2022/01/14 00:34:49;;;;;;;;;86.00;66.33;;;;;1.88;77.32;103497.75;4978704;28;45684;-73
2022/01/14 00:37:16;;;;;;;;;81.00;60.33;;;;;1.70;77.09;103461.94;4973290;28;45290;-73
2022/01/14 00:39:43;;;;;;;;;88.67;68.33;;;;;1.86;77.54;103494.06;4979391;28;45210;-73
2022/01/14 00:42:10;;;;;;;;;75.33;57.33;;;;;1.88;76.99;103497.75;4979125;28;45526;-73
2022/01/14 00:44:36;;;;;;;;;84.00;64.33;;;;;1.91;77.01;103495.47;4986254;28;45438;-73
2022/01/14 00:47:03;;;;;;;;;76.33;54.33;;;;;1.86;77.16;103482.72;4979084;28;45342;-73
2022/01/14 00:49:29;;;;;;;;;81.67;64.00;;;;;1.87;77.14;103480.25;4979759;28;45578;-73
2022/01/14 00:51:55;;;;;;;;;79.00;63.33;;;;;1.71;76.86;103458.56;4978862;28;45429;-73
2022/01/14 00:54:20;;;;;;;;;90.00;69.00;;;;;1.77;76.92;103478.41;4979610;28;44918;-73
2022/01/14 00:57:00;;;;;;;;;78.33;62.67;;;;;1.70;76.82;103464.56;4978923;28;45227;-73
2022/01/14 00:59:26;;;;;;;;;84.33;64.33;;;;;1.76;77.29;103471.34;4976897;28;45305;-74
2022/01/14 01:01:55;;;;;;;;;82.67;64.33;;;;;1.68;77.35;103472.25;4978773;28;45379;-73
2022/01/14 01:04:26;;;;;;;;;87.00;65.00;;;;;1.84;76.56;103494.66;4979603;28;45226;-74
2022/01/14 01:06:51;;;;;;;;;83.00;64.00;;;;;1.71;76.93;103474.22;4979097;28;45321;-73
2022/01/14 01:09:17;;;;;;;;;84.33;64.00;;;;;1.64;76.87;103453.50;4979116;28;45580;-73
2022/01/14 01:11:51;;;;;;;;;85.00;66.00;;;;;1.80;76.69;103485.63;4978774;28;46167;-74
2022/01/14 01:14:22;;;;;;;;;81.67;64.67;;;;;1.69;77.45;103471.47;4975380;28;45603;-73
2022/01/14 01:16:47;;;;;;;;;86.67;65.33;;;;;1.69;77.04;103475.75;4977734;28;45341;-74
2022/01/14 01:19:13;;;;;;;;;82.67;63.67;;;;;1.58;77.52;103452.88;4979322;28;45181;-73
2022/01/14 01:21:39;;;;;;;;;90.00;65.67;;;;;1.71;77.93;103474.22;4978962;28;45608;-73
2022/01/14 01:24:05;;;;;;;;;88.33;64.00;;;;;1.62;78.13;103460.25;4979019;28;45449;-73
2022/01/14 01:26:35;;;;;;;;;86.67;63.33;;;;;1.52;77.57;103443.66;4992520;28;45590;-74
2022/01/14 01:29:31;;;;;;;;;85.67;64.33;;;;;1.70;77.65;103475.00;4976855;28;46063;-74
2022/01/14 01:31:55;;;;;;;;;85.33;63.33;;;;;1.65;77.73;103456.25;4978230;28;46403;-74
2022/01/14 01:34:24;;;;;;;;;86.00;65.67;;;;;1.70;77.74;103468.09;4979171;28;45293;-73
2022/01/14 01:36:52;;;;;;;;;81.67;62.67;;;;;1.56;77.41;103448.41;4974969;28;45404;-73
2022/01/14 01:39:20;;;;;;;;;81.67;63.33;;;;;1.69;77.40;103471.47;4978880;28;45363;-73
2022/01/14 01:41:48;;;;;;;;;86.00;62.00;;;;;1.74;77.95;103485.91;4978334;28;45615;-73
2022/01/14 01:44:16;;;;;;;;;83.67;63.00;;;;;1.58;76.94;103456.41;4978854;28;45278;-74
2022/01/14 01:46:46;;;;;;;;;83.33;63.33;;;;;1.67;77.21;103480.81;4978484;28;45257;-74
2022/01/14 01:49:12;;;;;;;;;66.33;53.67;;;;;1.62;77.58;103471.59;4978793;28;45515;-74
2022/01/14 01:51:39;;;;;;;;;76.33;60.67;;;;;1.68;77.18;103481.72;4978960;28;45418;-74
2022/01/14 01:54:04;;;;;;;;;77.33;60.33;;;;;1.59;77.47;103459.94;4982036;28;45351;-74
2022/01/14 01:56:31;;;;;;;;;82.00;62.33;;;;;1.65;77.31;103473.59;4980014;28;45804;-74
2022/01/14 01:58:56;;;;;;;;;79.67;62.33;;;;;1.47;77.40;103442.25;4982038;28;45453;-73
2022/01/14 02:01:24;;;;;;;;;77.00;60.00;;;;;1.67;77.50;103474.69;4980261;28;47154;-74
2022/01/14 02:03:50;;;;;;;;;71.67;52.67;;;;;1.63;76.89;103462.09;4982040;28;45223;-74
2022/01/14 02:06:15;;;;;;;;;74.67;57.33;;;;;1.56;77.34;103450.09;4982329;28;45175;-74
2022/01/14 02:08:40;;;;;;;;;74.33;57.00;;;;;1.62;77.71;103455.94;4981188;28;45323;-73
2022/01/14 02:11:06;;;;;;;;;81.33;63.00;;;;;1.66;76.63;103465.94;4981843;28;46644;-74
2022/01/14 02:13:32;;;;;;;;;83.33;59.33;;;;;1.61;77.16;103458.41;4981355;28;45239;-74
2022/01/14 02:18:33;;;;;;;;;79.33;60.67;;;;;1.57;76.83;103454.56;4978877;28;45318;-74
2022/01/14 02:23:51;;;;;;;;;76.00;60.67;;;;;1.56;77.02;103457.91;4981495;28;45302;-74
2022/01/14 02:26:19;;;;;;;;;78.33;60.67;;;;;1.58;76.27;103459.00;4982262;28;45282;-74
2022/01/14 02:28:47;;;;;;;;;81.33;57.67;;;;;1.50;77.01;103439.06;4978988;28;45394;-74
2022/01/14 02:31:12;;;;;;;;;84.00;62.67;;;;;1.39;77.60;103419.69;4981718;28;45397;-74
2022/01/14 02:33:38;;;;;;;;;67.33;53.33;;;;;1.50;77.29;103449.47;4978009;28;45447;-73
2022/01/14 02:36:05;;;;;;;;;72.67;56.00;;;;;1.54;76.98;103443.78;4978959;28;45295;-73
2022/01/14 02:38:32;;;;;;;;;42.33;37.00;;;;;1.40;77.01;103421.56;4978931;28;45389;-73
2022/01/14 02:40:58;;;;;;;;;77.00;58.00;;;;;1.33;76.52;103409.56;4981635;28;45328;-73
2022/01/14 02:43:25;;;;;;;;;77.00;60.33;;;;;1.34;77.04;103413.06;4980621;28;45180;-73
2022/01/14 02:45:53;;;;;;;;;71.33;53.33;;;;;1.51;77.65;103436.63;4981884;28;45265;-73
2022/01/14 02:48:21;;;;;;;;;73.00;53.33;;;;;1.51;77.29;103439.22;4980529;28;45391;-73
2022/01/14 02:53:56;;;;;;;;;73.67;59.33;;;;;1.45;77.48;103438.56;4979488;28;45456;-73
2022/01/14 02:56:31;;;;;;;;;68.67;55.67;;;;;1.37;77.43;103425.50;4995885;28;45544;-73
2022/01/14 02:58:59;;;;;;;;;77.67;57.00;;;;;1.36;77.18;103418.47;4975499;28;45459;-73
2022/01/14 03:01:26;;;;;;;;;71.33;57.67;;;;;1.31;77.53;103404.94;4980681;28;46484;-73
2022/01/14 03:03:57;;;;;;;;;76.33;58.67;;;;;1.37;77.26;103408.19;4978699;28;45298;-73
2022/01/14 03:06:22;;;;;;;;;74.67;58.00;;;;;1.49;77.16;103421.59;4980737;28;45354;-73
2022/01/14 03:08:48;;;;;;;;;72.67;56.67;;;;;1.49;77.46;103422.50;4980146;28;45409;-73
2022/01/14 03:11:29;;;;;;;;;68.00;54.00;;;;;1.39;76.92;103408.34;4980909;28;46270;-73
2022/01/14 03:13:56;;;;;;;;;78.00;59.67;;;;;1.36;77.37;103389.78;4980074;28;45444;-73
2022/01/14 03:16:23;;;;;;;;;68.00;53.33;;;;;1.27;77.06;103379.34;4979373;28;45622;-73
2022/01/14 03:18:51;;;;;;;;;78.00;56.67;;;;;1.37;76.76;103405.56;4980260;28;45361;-73
2022/01/14 03:21:25;;;;;;;;;75.67;59.33;;;;;1.18;77.67;103368.00;4980838;28;46403;-73
2022/01/14 03:24:02;;;;;;;;;73.00;59.00;;;;;1.27;77.94;103384.56;4979207;28;45359;-73
2022/01/14 03:26:28;;;;;;;;;79.00;55.67;;;;;1.29;77.61;103391.78;4967475;28;45282;-73
2022/01/14 03:28:53;;;;;;;;;75.33;57.67;;;;;1.37;77.19;103407.25;4980252;28;45504;-73
2022/01/14 03:31:18;;;;;;;;;73.00;55.67;;;;;1.29;77.52;103393.47;4980951;28;45244;-73
2022/01/14 03:33:44;;;;;;;;;78.67;58.33;;;;;1.26;77.21;103380.09;4979775;28;45383;-73
2022/01/14 03:36:10;;;;;;;;;78.67;56.67;;;;;1.37;77.34;103402.06;4977182;28;45424;-73
2022/01/14 03:38:36;;;;;;;;;72.67;56.67;;;;;1.32;77.63;103391.19;4978379;28;45654;-73
2022/01/14 03:41:02;;;;;;;;;85.00;60.67;;;;;1.29;77.66;103390.88;4980827;28;45298;-73
2022/01/14 03:43:28;;;;;;;;;74.67;56.67;;;;;1.25;77.75;103387.00;4979740;28;44804;-73
2022/01/14 03:45:53;;;;;;;;;78.33;60.00;;;;;1.17;77.37;103374.84;4981025;28;45360;-73
2022/01/14 03:48:20;;;;;;;;;76.00;57.00;;;;;1.22;77.63;103391.88;4979700;28;45398;-73
2022/01/14 03:50:46;;;;;;;;;77.00;59.33;;;;;1.36;77.71;103411.56;4980389;28;45313;-73
2022/01/14 03:53:12;;;;;;;;;75.00;59.00;;;;;1.29;77.85;103399.59;4979616;28;45488;-73
2022/01/14 03:55:39;;;;;;;;;77.00;59.00;;;;;1.20;77.57;103377.78;4980750;28;45238;-73
2022/01/14 03:58:06;;;;;;;;;74.00;55.33;;;;;1.25;77.39;103386.06;4974869;28;45331;-73
2022/01/14 04:00:31;;;;;;;;;74.33;61.33;;;;;1.11;76.97;103356.00;4980533;28;45488;-73
2022/01/14 04:02:57;;;;;;;;;75.67;57.00;;;;;1.30;77.84;103396.22;4979458;28;45352;-73
2022/01/14 04:05:22;;;;;;;;;75.67;60.67;;;;;1.23;77.82;103380.72;4980643;28;45669;-73
2022/01/14 04:07:48;;;;;;;;;79.00;60.33;;;;;1.07;77.40;103353.84;4979424;28;45459;-73
2022/01/14 04:10:13;;;;;;;;;72.00;57.33;;;;;1.31;77.51;103399.72;4979944;28;45427;-73
2022/01/14 04:17:59;;;;;;;;;83.00;63.33;;;;;1.02;77.22;103350.75;4979332;28;45349;-73
2022/01/14 04:20:25;;;;;;;;;74.67;61.33;;;;;1.03;77.30;103346.47;4980114;28;45391;-73
2022/01/14 04:22:51;;;;;;;;;72.33;56.67;;;;;1.25;77.31;103397.41;4979221;28;45459;-73
2022/01/14 04:25:17;;;;;;;;;84.33;63.00;;;;;1.17;77.34;103387.88;4980276;28;45211;-73
2022/01/14 04:27:42;;;;;;;;;77.67;59.67;;;;;1.03;77.72;103357.78;4979030;28;45278;-73
2022/01/14 04:30:08;;;;;;;;;78.67;59.33;;;;;1.18;77.83;103384.53;4979769;28;45483;-74
2022/01/14 04:32:33;;;;;;;;;71.00;57.67;;;;;1.13;77.53;103374.41;4979042;28;45402;-73
2022/01/14 04:34:59;;;;;;;;;71.00;57.33;;;;;1.22;77.69;103393.59;4980211;28;45550;-73
2022/01/14 04:37:24;;;;;;;;;75.67;61.00;;;;;1.13;78.14;103363.97;4974949;28;45455;-73
2022/01/14 04:39:50;;;;;;;;;79.00;61.00;;;;;1.17;77.58;103361.84;4979669;28;45326;-73
2022/01/14 04:42:15;;;;;;;;;77.33;61.00;;;;;1.21;77.67;103377.03;4977961;28;45357;-73
2022/01/14 04:44:41;;;;;;;;;74.33;58.67;;;;;1.25;77.42;103373.97;4979692;28;46387;-73
2022/01/14 04:47:17;;;;;;;;;74.67;60.67;;;;;1.15;77.23;103355.56;4979013;28;45334;-73
2022/01/14 04:49:42;;;;;;;;;72.00;58.00;;;;;1.21;77.13;103365.69;4968725;28;45433;-73
2022/01/14 04:52:08;;;;;;;;;76.33;56.33;;;;;1.13;77.35;103353.56;4977108;28;45311;-73
2022/01/14 04:54:34;;;;;;;;;77.00;61.00;;;;;1.13;77.93;103357.09;4979516;28;45542;-73
2022/01/14 04:57:00;;;;;;;;;74.33;59.00;;;;;1.16;78.04;103354.78;4980898;28;46328;-73
2022/01/14 04:59:26;;;;;;;;;78.67;61.33;;;;;1.04;77.55;103335.31;4979402;28;45651;-73
2022/01/14 05:01:51;;;;;;;;;79.67;61.33;;;;;1.13;77.48;103348.34;4979061;28;45426;-73
2022/01/14 05:04:16;;;;;;;;;81.33;62.33;;;;;1.10;77.45;103336.84;4979555;28;45269;-73
2022/01/14 05:06:45;;;;;;;;;79.67;62.67;;;;;1.15;77.69;103346.81;4978816;28;45300;-73
2022/01/14 05:09:20;;;;;;;;;82.33;62.00;;;;;1.01;77.52;103317.69;4978989;28;45558;-73
2022/01/14 05:11:53;;;;;;;;;82.00;62.00;;;;;1.17;78.13;103342.69;4978963;28;45314;-73
2022/01/14 05:14:18;;;;;;;;;78.33;58.00;;;;;1.11;77.36;103328.25;4979318;28;45172;-73
2022/01/14 05:16:43;;;;;;;;;71.00;55.67;;;;;1.13;77.74;103327.53;4978851;28;45132;-73
2022/01/14 05:19:09;;;;;;;;;77.67;61.33;;;;;1.12;77.38;103326.56;4979268;28;45584;-73
2022/01/14 05:21:34;;;;;;;;;76.00;61.33;;;;;1.05;77.69;103327.63;4977448;28;45586;-73
2022/01/14 05:23:59;;;;;;;;;80.33;63.67;;;;;1.03;77.49;103318.72;4979040;28;45369;-73
2022/01/14 05:26:25;;;;;;;;;80.67;62.00;;;;;1.03;77.40;103323.03;4979201;28;45582;-74
2022/01/14 05:28:50;;;;;;;;;86.00;65.33;;;;;0.97;77.88;103322.41;4980938;28;45668;-73
2022/01/14 05:31:16;;;;;;;;;74.00;59.33;;;;;1.06;77.14;103346.78;4982787;28;45317;-73
2022/01/14 05:33:42;;;;;;;;;78.67;63.67;;;;;0.92;78.15;103323.59;4978889;28;45838;-73
2022/01/14 05:36:08;;;;;;;;;81.33;62.33;;;;;1.07;77.93;103354.75;4980383;28;45529;-73
2022/01/14 05:38:33;;;;;;;;;87.00;63.67;;;;;0.98;77.10;103337.25;4979681;28;45439;-73
2022/01/14 05:40:58;;;;;;;;;86.33;61.67;;;;;1.07;77.31;103365.19;4981327;28;45314;-73
2022/01/14 05:43:24;;;;;;;;;79.00;58.67;;;;;1.03;77.90;103354.28;4986274;28;45409;-73
2022/01/14 05:45:49;;;;;;;;;84.00;64.33;;;;;1.06;77.49;103371.13;4981100;28;46362;-73
2022/01/14 05:48:14;;;;;;;;;77.67;62.00;;;;;0.97;77.79;103356.25;4981640;28;46169;-73
2022/01/14 05:50:40;;;;;;;;;86.00;65.00;;;;;0.88;77.52;103336.31;4981014;28;45245;-74
2022/01/14 05:53:07;;;;;;;;;82.33;58.00;;;;;0.94;77.69;103350.72;4981576;28;45298;-73
2022/01/14 05:55:32;;;;;;;;;80.00;63.00;;;;;0.89;77.90;103335.53;4981193;28;46447;-73
2022/01/14 05:57:58;;;;;;;;;95.00;65.33;;;;;0.95;78.27;103340.44;4980537;28;46282;-73
2022/01/14 06:00:23;;;;;;;;;84.33;64.67;;;;;0.84;77.76;103320.19;4981143;28;45384;-73
2022/01/14 06:02:50;;;;;;;;;80.00;62.00;;;;;0.92;77.46;103326.19;4980613;28;45631;-73
2022/01/14 06:05:16;;;;;;;;;83.67;66.33;;;;;0.90;77.40;103320.84;4982238;28;45469;-73
2022/01/14 06:07:42;;;;;;;;;83.33;63.00;;;;;1.01;78.26;103348.94;4978931;28;48262;-73
2022/01/14 06:10:07;;;;;;;;;79.00;62.00;;;;;1.00;77.54;103346.16;4981960;28;45321;-73
2022/01/14 06:12:33;;;;;;;;;87.33;65.00;;;;;0.94;77.80;103332.50;4981477;28;45414;-73
2022/01/14 06:15:00;;;;;;;;;85.67;63.00;;;;;0.96;77.39;103342.31;4981968;28;45539;-73
2022/01/14 06:17:26;;;;;;;;;78.67;64.67;;;;;0.85;78.01;103328.19;4982442;28;48349;-73
2022/01/14 06:19:51;;;;;;;;;72.00;57.67;;;;;0.96;77.76;103347.53;4980749;28;45298;-73
2022/01/14 06:22:16;;;;;;;;;76.00;59.00;;;;;0.95;78.13;103350.88;4980151;28;44759;-73
2022/01/14 06:24:42;;;;;;;;;70.33;50.67;;;;;0.88;77.21;103331.09;4981593;28;45287;-73
2022/01/14 06:27:07;;;;;;;;;71.33;55.00;;;;;0.89;78.55;103332.94;4981029;28;45732;-73
2022/01/14 06:29:33;;;;;;;;;74.67;57.67;;;;;0.91;76.97;103332.19;4981604;28;45298;-73
2022/01/14 06:31:58;;;;;;;;;67.33;51.33;;;;;0.94;78.50;103340.31;4978249;28;45562;-73
2022/01/14 06:34:23;;;;;;;;;69.00;53.33;;;;;0.98;78.29;103338.19;4979696;28;45207;-73
2022/01/14 06:36:49;;;;;;;;;75.00;56.67;;;;;0.98;78.39;103342.47;4975192;28;47167;-73
2022/01/14 06:39:14;;;;;;;;;72.33;57.33;;;;;0.96;78.03;103333.59;4981176;28;45215;-73
2022/01/14 06:41:39;;;;;;;;;76.33;61.33;;;;;1.00;78.63;103333.13;4981089;28;45309;-73
2022/01/14 06:44:06;;;;;;;;;65.67;55.33;;;;;1.04;78.19;103340.50;4979403;28;45460;-72
2022/01/14 06:46:31;;;;;;;;;62.33;49.33;;;;;1.15;78.90;103360.78;4979526;28;45338;-73
2022/01/14 06:48:57;;;;;;;;;76.00;58.33;;;;;1.06;78.76;103334.66;4975444;28;45310;-73
2022/01/14 06:51:22;;;;;;;;;69.67;58.33;;;;;1.12;78.77;103331.78;4980899;28;45254;-73
2022/01/14 06:53:48;;;;;;;;;67.00;54.00;;;;;1.06;78.68;103324.25;4974148;28;45305;-73
2022/01/14 06:56:15;;;;;;;;;64.33;51.00;;;;;1.24;78.92;103360.81;4979870;28;46926;-73
2022/01/14 06:58:41;;;;;;;;;69.67;54.33;;;;;1.17;78.50;103337.47;4978862;28;45487;-73
2022/01/14 07:01:06;;;;;;;;;67.33;52.00;;;;;1.19;79.18;103331.66;4979261;28;45367;-72
2022/01/14 07:03:32;;;;;;;;;71.00;52.33;;;;;1.30;79.25;103345.78;4977015;28;45548;-72
2022/01/14 07:05:57;;;;;;;;;69.33;53.33;;;;;1.24;79.24;103335.66;4980109;28;45945;-72
2022/01/14 07:08:23;;;;;;;;;62.33;49.67;;;;;1.22;79.00;103331.06;4980173;28;45259;-72
2022/01/14 07:10:48;;;;;;;;;62.67;53.67;;;;;1.28;78.45;103343.00;4980736;28;44738;-72
2022/01/14 07:13:14;;;;;;;;;71.00;49.00;;;;;1.25;78.34;103329.69;4977410;28;45272;-73
2022/01/14 07:15:39;;;;;;;;;68.00;54.67;;;;;1.29;78.71;103329.25;4980179;28;45214;-72
2022/01/14 07:18:04;;;;;;;;;72.67;56.00;;;;;1.30;78.64;103317.13;4974696;28;46396;-72
2022/01/14 07:20:30;;;;;;;;;86.67;63.33;;;;;1.36;79.29;103328.19;4978831;28;45743;-73
2022/01/14 07:22:55;;;;;;;;;66.00;50.33;;;;;1.31;78.01;103305.94;4973630;28;45437;-72
2022/01/14 07:25:21;;;;;;;;;93.33;70.00;;;;;1.47;78.00;103334.47;4979882;28;45447;-72
2022/01/14 07:27:47;;;;;;;;;80.33;61.00;;;;;1.35;78.42;103305.50;4978768;28;45923;-73
2022/01/14 07:30:16;;;;;;;;;73.33;55.00;;;;;1.21;77.96;103275.44;4980829;28;45345;-72
2022/01/14 07:32:42;;;;;;;;;68.33;51.33;;;;;1.34;78.45;103308.84;4979906;28;45511;-72
2022/01/14 07:35:08;;;;;;;;;69.67;56.00;;;;;1.48;79.19;103326.81;4980542;28;45278;-73
2022/01/14 07:37:34;;;;;;;;;86.67;69.33;;;;;1.37;78.48;103308.25;4975420;28;47630;-73
2022/01/14 07:39:59;;;;;;;;;71.00;56.67;;;;;1.53;77.99;103330.81;4980663;28;45253;-72
2022/01/14 07:42:25;;;;;;;;;78.00;62.67;;;;;1.47;78.50;103317.16;4979818;28;45261;-73
2022/01/14 07:44:51;;;;;;;;;75.67;61.33;;;;;1.42;78.66;103307.03;4980363;28;45582;-73
2022/01/14 07:47:16;;;;;;;;;73.00;58.67;;;;;1.55;77.73;103330.97;4979903;28;45248;-72
2022/01/14 07:49:41;;;;;;;;;93.00;69.00;;;;;1.61;77.79;103339.41;4979914;28;45337;-72
2022/01/14 07:52:07;;;;;;;;;79.67;61.00;;;;;1.63;77.83;103344.78;4979764;28;45267;-72
2022/01/14 07:54:32;;;;;;;;;83.33;66.00;;;;;1.60;78.41;103344.44;4980077;28;45413;-72
2022/01/14 07:57:00;;;;;;;;;76.00;60.33;;;;;1.61;77.94;103346.31;4977105;28;45370;-72
2022/01/14 07:59:29;;;;;;;;;78.67;63.67;;;;;1.65;78.35;103353.66;4980442;28;45230;-72
2022/01/14 08:01:56;;;;;;;;;75.33;57.33;;;;;1.69;77.91;103361.97;4979503;28;45405;-72
2022/01/14 08:04:22;;;;;;;;;95.67;73.67;;;;;1.58;78.01;103335.59;4976046;28;45394;-72
2022/01/14 08:06:50;;;;;;;;;75.00;57.00;;;;;1.56;77.76;103335.41;4979651;28;45262;-72
2022/01/14 08:09:17;;;;;;;;;85.00;66.33;;;;;1.63;77.83;103344.78;4979803;28;44729;-72
2022/01/14 08:11:43;;;;;;;;;75.00;59.67;;;;;1.64;78.42;103344.94;4978388;28;45318;-72
2022/01/14 08:14:09;;;;;;;;;75.67;56.00;;;;;1.71;78.17;103362.09;4974781;28;45722;-72
2022/01/14 08:16:34;;;;;;;;;67.67;54.67;;;;;1.63;78.59;103347.41;4993928;28;45229;-71
2022/01/14 08:19:00;;;;;;;;;76.00;56.67;;;;;1.68;78.17;103353.97;4974587;28;45342;-72
2022/01/14 08:21:25;;;;;;;;;77.67;58.33;;;;;1.74;77.74;103365.97;4979731;28;45428;-72
2022/01/14 08:23:51;;;;;;;;;86.67;70.00;;;;;1.75;77.84;103370.41;4979157;28;45360;-72
2022/01/14 08:26:16;;;;;;;;;75.67;57.67;;;;;1.63;77.50;103340.50;4980226;28;44676;-72
2022/01/14 08:28:42;;;;;;;;;76.00;61.00;;;;;1.73;78.26;103361.50;4979077;28;45512;-71
2022/01/14 08:31:07;;;;;;;;;145.75;127.75;;;;;1.70;78.47;103358.56;4967200;28;45645;-71
2022/01/14 08:33:32;;;;;;;;;73.33;56.33;;;;;1.82;77.99;103374.56;4979066;28;46804;-72
2022/01/14 08:36:00;;;;;;;;;82.00;61.67;;;;;1.84;77.87;103364.28;4977559;28;45354;-72
2022/01/14 08:38:25;;;;;;;;;84.67;59.67;;;;;1.83;77.67;103365.97;4972921;28;45341;-72
2022/01/14 08:40:50;;;;;;;;;83.00;64.00;;;;;1.86;77.72;103355.84;4973341;28;45218;-72
2022/01/14 08:43:16;;;;;;;;;106.00;95.25;;;;;1.84;77.93;103352.16;4983667;28;47358;-72
2022/01/14 08:45:42;;;;;;;;;93.00;71.67;;;;;1.80;77.72;103339.59;4979404;28;45354;-72
2022/01/14 08:48:07;;;;;;;;;85.00;62.00;;;;;1.92;78.48;103360.75;4977666;28;45453;-72
2022/01/14 08:50:36;;;;;;;;;108.50;90.75;;;;;1.95;78.17;103367.19;4979354;28;45527;-73
2022/01/14 08:53:04;;;;;;;;;97.33;72.33;;;;;1.99;77.84;103371.06;4978618;28;45686;-72
2022/01/14 08:55:29;;;;;;;;;109.50;93.00;;;;;1.97;77.97;103356.94;4966035;28;46181;-72
2022/01/14 08:57:55;;;;;;;;;139.50;119.25;;;;;1.92;78.01;103338.19;4972380;28;45336;-71
2022/01/14 09:00:24;;;;;;;;;98.00;74.00;;;;;1.88;77.70;103341.28;4971594;28;45481;-71
2022/01/14 09:02:50;;;;;;;;;110.75;94.25;;;;;2.07;77.91;103356.13;4979980;28;46420;-71
2022/01/14 09:05:16;;;;;;;;;84.67;64.67;;;;;2.15;78.02;103353.53;4983005;28;44778;-71
2022/01/14 09:07:41;;;;;;;;;125.50;93.50;;;;;2.14;77.45;103341.25;4981925;28;45420;-71
2022/01/14 09:10:08;;;;;;;;;71.33;54.33;;;;;2.13;77.41;103333.25;4982633;28;45369;-73
2022/01/14 09:12:35;;;;;;;;;99.67;78.67;;;;;2.17;77.34;103320.69;4982097;28;45519;-73
2022/01/14 09:15:01;;;;;;;;;103.50;88.00;;;;;2.26;77.30;103330.19;4982544;28;45210;-72
2022/01/14 09:17:27;;;;;;;;;79.00;59.00;;;;;2.32;77.39;103336.00;4980812;28;45189;-71
2022/01/14 09:19:53;;;;;;;;;100.33;76.67;;;;;2.41;77.10;103343.06;4982536;28;45352;-71
2022/01/14 09:22:18;;;;;;;;;77.33;61.00;;;;;2.35;77.39;103328.47;4980300;28;47861;-71
2022/01/14 09:24:47;;;;;;;;;110.00;95.75;;;;;2.57;77.24;103365.44;4982210;28;45402;-71
2022/01/14 09:27:14;;;;;;;;;94.75;76.00;;;;;2.62;77.29;103353.75;4980829;28;45372;-71
2022/01/14 09:29:40;;;;;;;;;79.33;63.33;;;;;2.64;76.69;103347.91;4982130;28;45306;-71
2022/01/14 09:32:05;;;;;;;;;156.00;139.25;;;;;2.64;76.41;103333.94;4980344;28;46843;-72
2022/01/14 09:34:33;;;;;;;;;99.75;82.00;;;;;2.70;77.35;103326.69;4982544;28;45167;-73
2022/01/14 09:36:58;;;;;;;;;80.00;64.00;;;;;2.68;77.33;103326.53;4977032;28;45261;-73
2022/01/14 09:39:23;;;;;;;;;94.67;73.00;;;;;2.80;76.69;103334.66;4982417;28;45620;-73
2022/01/14 09:41:49;;;;;;;;;82.33;63.67;;;;;2.88;76.63;103343.22;4981666;28;46474;-72
2022/01/14 09:44:15;;;;;;;;;90.00;65.00;;;;;2.95;76.18;103336.91;4982140;28;45263;-72
2022/01/14 09:46:41;;;;;;;;;92.33;68.33;;;;;2.83;76.17;103320.94;4981327;28;45576;-72
2022/01/14 09:49:06;;;;;;;;;88.33;68.67;;;;;3.02;76.28;103345.44;4981886;28;45652;-72
2022/01/14 09:51:32;;;;;;;;;84.33;64.33;;;;;2.97;76.49;103319.66;4981455;28;46276;-72
2022/01/14 09:53:58;;;;;;;;;85.33;66.00;;;;;3.17;76.48;103347.72;4981838;28;45315;-72
2022/01/14 09:56:24;;;;;;;;;93.33;72.00;;;;;3.12;76.18;103339.44;4982280;28;45395;-72
2022/01/14 09:58:51;;;;;;;;;197.25;183.25;;;;;3.24;76.11;103358.88;4981161;28;45531;-72
2022/01/14 10:01:22;;;;;;;;;87.00;66.33;;;;;3.30;76.13;103350.69;4982042;28;46206;-72
2022/01/14 10:03:57;;;;;;;;;86.33;66.33;;;;;3.22;76.12;103331.69;4981336;28;45561;-72
2022/01/14 10:06:41;;;;;;;;;97.33;77.00;;;;;3.46;75.51;103364.44;4984837;28;45464;-72
2022/01/14 10:09:08;;;;;;;;;90.67;70.67;;;;;3.62;76.03;103366.81;4994304;28;46058;-73
2022/01/14 10:11:35;;;;;;;;;170.00;143.50;;;;;3.80;75.56;103357.13;4979915;28;47064;-72
2022/01/14 10:14:10;;;;;;;;;87.33;67.33;;;;;4.09;75.53;103364.13;4980972;28;45404;-72
2022/01/14 10:16:40;;;;;;;;;176.25;147.00;;;;;4.24;74.46;103352.47;4980432;28;45448;-72
2022/01/14 10:19:17;;;;;;;;;76.33;57.67;;;;;4.39;73.63;103331.97;4981563;28;45306;-72
2022/01/14 10:21:42;;;;;;;;;78.33;59.67;;;;;4.49;73.17;103324.16;4981268;28;45519;-72
2022/01/14 10:24:11;;;;;;;;;90.33;70.00;;;;;4.74;74.10;103343.00;4981417;28;45392;-72
2022/01/14 10:26:58;;;;;;;;;64.00;52.00;;;;;4.85;73.50;103347.47;4981484;28;45272;-72
2022/01/14 10:29:38;;;;;;;;;73.67;55.33;;;;;5.11;71.79;103361.97;4980059;28;45472;-72
2022/01/14 10:32:06;;;;;;;;;68.67;55.33;;;;;5.32;72.54;103363.84;4980873;28;46205;-73
2022/01/14 10:34:32;;;;;;;;;72.00;56.67;;;;;5.45;71.17;103351.78;4981533;28;45180;-72
2022/01/14 10:37:11;;;;;;;;;77.33;61.67;;;;;5.61;70.99;103345.34;4975790;28;45470;-73
2022/01/14 10:39:53;;;;;;;;;70.25;56.00;;;;;5.74;69.68;103338.50;4981231;28;45509;-72
2022/01/14 10:42:28;;;;;;;;;84.33;65.33;;;;;5.84;68.86;103343.75;4980556;28;45586;-72
2022/01/14 10:44:54;;;;;;;;;62.75;51.25;;;;;5.82;68.49;103324.31;4981071;28;45381;-72
2022/01/14 10:47:22;;;;;;;;;65.75;52.25;;;;;5.98;69.89;103332.75;4980793;28;45413;-72
2022/01/14 10:49:52;;;;;;;;;62.00;50.00;;;;;5.98;69.52;103303.88;4979592;28;47587;-72
2022/01/14 10:52:20;;;;;;;;;83.67;63.33;;;;;6.12;69.64;103299.75;4980718;28;45373;-72
2022/01/14 10:54:55;;;;;;;;;98.00;83.33;;;;;6.36;68.66;103323.56;4980619;28;45289;-73
2022/01/14 10:57:23;;;;;;;;;69.00;53.25;;;;;6.43;67.98;103312.78;4979850;28;45398;-73
2022/01/14 10:59:53;;;;;;;;;69.00;55.25;;;;;6.30;70.45;103283.66;4980958;28;45294;-72
2022/01/14 11:02:45;;;;;;;;;71.50;56.25;;;;;6.53;68.77;103318.00;4974848;28;47188;-73
2022/01/14 11:05:16;;;;;;;;;80.00;60.33;;;;;6.46;68.19;103305.13;4966675;28;46158;-73
2022/01/14 11:07:43;;;;;;;;;63.25;50.25;;;;;6.45;66.35;103306.84;4975938;28;45395;-72
2022/01/14 11:10:22;;;;;;;;;66.50;53.50;;;;;6.39;68.53;103287.06;4980797;28;45713;-73
2022/01/14 11:12:48;;;;;;;;;69.67;56.00;;;;;6.61;68.15;103319.53;4979615;28;45529;-73
2022/01/14 11:15:15;;;;;;;;;90.33;70.67;;;;;6.64;67.76;103296.13;4980987;28;45296;-73
2022/01/14 11:17:42;;;;;;;;;68.25;53.75;;;;;6.64;67.33;103296.13;4980125;28;45554;-73
2022/01/14 11:20:10;;;;;;;;;70.00;52.25;;;;;6.69;66.19;103286.91;4980440;28;45282;-73
2022/01/14 11:25:21;;;;;;;;;69.25;53.75;;;;;6.78;66.04;103297.25;4980770;28;45353;-73
2022/01/14 11:27:54;;;;;;;;;73.75;58.00;;;;;6.76;66.85;103271.63;4979609;28;45551;-73
2022/01/14 11:30:20;;;;;;;;;71.75;56.75;;;;;6.88;65.30;103268.22;4979514;28;45354;-73
2022/01/14 11:32:54;;;;;;;;;78.75;58.50;;;;;6.98;66.45;103268.97;4974980;28;47973;-72
2022/01/14 11:35:24;;;;;;;;;83.00;63.33;;;;;7.11;66.61;103285.84;4978557;28;45439;-72
2022/01/14 11:37:50;;;;;;;;;129.67;100.33;;;;;7.02;64.67;103263.16;4972650;28;45345;-72
2022/01/14 11:40:16;;;;;;;;;75.75;58.25;;;;;7.07;65.12;103254.81;4965226;28;45557;-72
2022/01/14 11:42:59;;;;;;;;;67.00;52.00;;;;;7.24;68.35;103271.91;4977228;28;45828;-73